sensor_id;sensor_type;location;lat;lon;timestamp;pressure;altitude;pressure_sealevel;temperature;humidity
20368;BME280;10343;52.402;9.796;2023-02-10T00:01:39;102787.59;;;6.41;76.50
20368;BME280;10343;52.402;9.796;2023-02-10T00:04:07;102802.59;;;6.43;77.13
20368;BME280;10343;52.402;9.796;2023-02-10T00:06:35;102803.06;;;6.60;76.14
20368;BME280;10343;52.402;9.796;2023-02-10T00:09:03;102806.38;;;6.53;76.13
20368;BME280;10343;52.402;9.796;2023-02-10T00:11:31;102802.16;;;5.98;78.27
20368;BME280;10343;52.402;9.796;2023-02-10T00:14:17;102810.66;;;6.18;78.88
20368;BME280;10343;52.402;9.796;2023-02-10T00:16:49;102813.28;;;6.50;77.23
20368;BME280;10343;52.402;9.796;2023-02-10T00:19:17;102815.38;;;6.29;77.79
20368;BME280;10343;52.402;9.796;2023-02-10T00:21:45;102812.69;;;6.28;77.71
20368;BME280;10343;52.402;9.796;2023-02-10T00:24:13;102806.84;;;5.79;80.04
20368;BME280;10343;52.402;9.796;2023-02-10T00:26:41;102801.50;;;6.05;80.17
20368;BME280;10343;52.402;9.796;2023-02-10T00:29:09;102812.97;;;6.07;78.69
20368;BME280;10343;52.402;9.796;2023-02-10T00:31:38;102805.13;;;5.81;82.06
20368;BME280;10343;52.402;9.796;2023-02-10T00:34:08;102828.44;;;6.26;78.69
20368;BME280;10343;52.402;9.796;2023-02-10T00:36:37;102819.31;;;6.14;79.40
20368;BME280;10343;52.402;9.796;2023-02-10T00:39:05;102830.59;;;6.40;78.27
20368;BME280;10343;52.402;9.796;2023-02-10T00:41:33;102831.25;;;6.63;75.95
20368;BME280;10343;52.402;9.796;2023-02-10T00:44:03;102825.44;;;6.44;75.73
20368;BME280;10343;52.402;9.796;2023-02-10T00:46:31;102834.41;;;6.19;77.34
20368;BME280;10343;52.402;9.796;2023-02-10T00:48:59;102836.91;;;6.45;77.03
20368;BME280;10343;52.402;9.796;2023-02-10T00:51:28;102840.88;;;6.02;77.78
20368;BME280;10343;52.402;9.796;2023-02-10T00:53:56;102842.31;;;6.51;76.95
20368;BME280;10343;52.402;9.796;2023-02-10T00:56:24;102829.31;;;6.25;78.98
20368;BME280;10343;52.402;9.796;2023-02-10T00:58:52;102836.22;;;6.52;76.90
20368;BME280;10343;52.402;9.796;2023-02-10T01:01:19;102835.59;;;6.62;76.02
20368;BME280;10343;52.402;9.796;2023-02-10T01:03:47;102837.25;;;6.91;74.27
20368;BME280;10343;52.402;9.796;2023-02-10T01:06:15;102836.84;;;6.75;74.19
20368;BME280;10343;52.402;9.796;2023-02-10T01:08:44;102838.19;;;6.61;75.36
20368;BME280;10343;52.402;9.796;2023-02-10T01:11:13;102843.78;;;6.72;74.79
20368;BME280;10343;52.402;9.796;2023-02-10T01:13:45;102845.06;;;6.86;74.23
20368;BME280;10343;52.402;9.796;2023-02-10T01:16:14;102841.72;;;6.93;74.07
20368;BME280;10343;52.402;9.796;2023-02-10T01:18:44;102850.47;;;6.92;73.52
20368;BME280;10343;52.402;9.796;2023-02-10T01:21:14;102850.19;;;6.50;75.17
20368;BME280;10343;52.402;9.796;2023-02-10T01:23:44;102850.00;;;6.74;74.32
20368;BME280;10343;52.402;9.796;2023-02-10T01:26:13;102846.06;;;6.59;75.06
20368;BME280;10343;52.402;9.796;2023-02-10T01:28:42;102844.81;;;6.45;76.53
20368;BME280;10343;52.402;9.796;2023-02-10T01:31:11;102840.75;;;6.26;77.52
20368;BME280;10343;52.402;9.796;2023-02-10T01:33:40;102843.06;;;6.15;78.67
20368;BME280;10343;52.402;9.796;2023-02-10T01:36:10;102847.63;;;6.53;77.43
20368;BME280;10343;52.402;9.796;2023-02-10T01:38:38;102839.13;;;6.61;76.73
20368;BME280;10343;52.402;9.796;2023-02-10T01:41:08;102841.91;;;6.68;76.72
20368;BME280;10343;52.402;9.796;2023-02-10T01:46:36;102827.31;;;6.49;77.93
20368;BME280;10343;52.402;9.796;2023-02-10T01:49:06;102837.66;;;6.73;77.42
20368;BME280;10343;52.402;9.796;2023-02-10T01:51:38;102827.88;;;6.69;77.62
20368;BME280;10343;52.402;9.796;2023-02-10T01:54:11;102825.78;;;6.57;78.54
20368;BME280;10343;52.402;9.796;2023-02-10T01:56:42;102826.56;;;6.53;78.66
20368;BME280;10343;52.402;9.796;2023-02-10T01:59:12;102811.00;;;6.30;79.86
20368;BME280;10343;52.402;9.796;2023-02-10T02:01:41;102818.59;;;6.19;81.11
20368;BME280;10343;52.402;9.796;2023-02-10T02:04:08;102816.25;;;6.00;82.73
20368;BME280;10343;52.402;9.796;2023-02-10T02:06:37;102807.69;;;6.07;83.26
20368;BME280;10343;52.402;9.796;2023-02-10T02:09:05;102809.84;;;6.20;82.63
20368;BME280;10343;52.402;9.796;2023-02-10T02:11:38;102818.66;;;6.22;82.24
20368;BME280;10343;52.402;9.796;2023-02-10T02:14:26;102813.88;;;6.38;81.44
20368;BME280;10343;52.402;9.796;2023-02-10T02:17:03;102818.94;;;6.32;81.92
20368;BME280;10343;52.402;9.796;2023-02-10T02:19:53;102827.69;;;6.62;79.96
20368;BME280;10343;52.402;9.796;2023-02-10T02:23:10;102828.59;;;6.63;79.43
20368;BME280;10343;52.402;9.796;2023-02-10T02:25:55;102825.44;;;6.44;80.00
20368;BME280;10343;52.402;9.796;2023-02-10T02:28:36;102824.97;;;6.59;79.95
20368;BME280;10343;52.402;9.796;2023-02-10T02:31:41;102824.84;;;6.53;79.82
20368;BME280;10343;52.402;9.796;2023-02-10T02:34:14;102819.78;;;6.62;80.09
20368;BME280;10343;52.402;9.796;2023-02-10T02:36:49;102830.28;;;6.61;80.02
20368;BME280;10343;52.402;9.796;2023-02-10T02:39:18;102839.19;;;6.65;79.62
20368;BME280;10343;52.402;9.796;2023-02-10T02:41:46;102833.66;;;6.55;80.34
20368;BME280;10343;52.402;9.796;2023-02-10T02:44:15;102838.94;;;6.55;80.43
20368;BME280;10343;52.402;9.796;2023-02-10T02:46:54;102833.03;;;6.64;80.75
20368;BME280;10343;52.402;9.796;2023-02-10T02:49:30;102831.50;;;6.72;79.92
20368;BME280;10343;52.402;9.796;2023-02-10T02:52:04;102828.56;;;6.61;80.71
20368;BME280;10343;52.402;9.796;2023-02-10T02:54:39;102827.69;;;6.62;80.37
20368;BME280;10343;52.402;9.796;2023-02-10T02:57:16;102819.56;;;6.53;80.61
20368;BME280;10343;52.402;9.796;2023-02-10T02:59:49;102829.91;;;6.47;81.24
20368;BME280;10343;52.402;9.796;2023-02-10T03:02:20;102827.78;;;6.64;80.43
20368;BME280;10343;52.402;9.796;2023-02-10T03:04:49;102823.31;;;6.61;80.27
20368;BME280;10343;52.402;9.796;2023-02-10T03:07:17;102817.34;;;6.37;80.54
20368;BME280;10343;52.402;9.796;2023-02-10T03:09:45;102817.69;;;6.49;81.38
20368;BME280;10343;52.402;9.796;2023-02-10T03:12:13;102821.25;;;6.51;80.14
20368;BME280;10343;52.402;9.796;2023-02-10T03:14:40;102819.78;;;6.62;79.87
20368;BME280;10343;52.402;9.796;2023-02-10T03:17:08;102821.84;;;6.73;79.90
20368;BME280;10343;52.402;9.796;2023-02-10T03:19:38;102827.25;;;6.79;78.70
20368;BME280;10343;52.402;9.796;2023-02-10T03:22:05;102820.84;;;6.69;79.28
20368;BME280;10343;52.402;9.796;2023-02-10T03:24:33;102829.25;;;6.86;78.67
20368;BME280;10343;52.402;9.796;2023-02-10T03:27:01;102828.72;;;6.68;78.12
20368;BME280;10343;52.402;9.796;2023-02-10T03:29:32;102826.22;;;6.72;78.67
20368;BME280;10343;52.402;9.796;2023-02-10T03:32:00;102830.13;;;6.87;77.98
20368;BME280;10343;52.402;9.796;2023-02-10T03:34:28;102833.19;;;6.70;78.29
20368;BME280;10343;52.402;9.796;2023-02-10T03:36:57;102831.53;;;6.74;78.36
20368;BME280;10343;52.402;9.796;2023-02-10T03:39:25;102839.84;;;6.89;77.22
20368;BME280;10343;52.402;9.796;2023-02-10T03:41:52;102835.09;;;6.76;77.89
20368;BME280;10343;52.402;9.796;2023-02-10T03:44:20;102840.69;;;6.88;77.17
20368;BME280;10343;52.402;9.796;2023-02-10T03:46:48;102849.03;;;6.72;77.95
20368;BME280;10343;52.402;9.796;2023-02-10T03:49:16;102843.19;;;6.82;77.97
20368;BME280;10343;52.402;9.796;2023-02-10T03:51:44;102836.56;;;6.65;78.39
20368;BME280;10343;52.402;9.796;2023-02-10T03:54:13;102833.06;;;6.66;78.62
20368;BME280;10343;52.402;9.796;2023-02-10T03:56:41;102838.69;;;6.78;77.67
20368;BME280;10343;52.402;9.796;2023-02-10T03:59:09;102837.81;;;6.79;78.09
20368;BME280;10343;52.402;9.796;2023-02-10T04:01:37;102827.25;;;6.79;77.98
20368;BME280;10343;52.402;9.796;2023-02-10T04:04:05;102830.09;;;6.85;77.83
20368;BME280;10343;52.402;9.796;2023-02-10T04:06:33;102844.03;;;6.81;77.48
20368;BME280;10343;52.402;9.796;2023-02-10T04:09:00;102843.41;;;6.91;77.25
20368;BME280;10343;52.402;9.796;2023-02-10T04:11:30;102843.34;;;6.88;77.13
20368;BME280;10343;52.402;9.796;2023-02-10T04:13:58;102842.25;;;7.13;76.68
20368;BME280;10343;52.402;9.796;2023-02-10T04:16:25;102837.81;;;6.79;78.08
20368;BME280;10343;52.402;9.796;2023-02-10T04:18:54;102836.00;;;7.10;77.28
20368;BME280;10343;52.402;9.796;2023-02-10T04:21:22;102835.94;;;7.07;76.77
20368;BME280;10343;52.402;9.796;2023-02-10T04:23:51;102834.16;;;7.07;76.87
20368;BME280;10343;52.402;9.796;2023-02-10T04:26:18;102834.50;;;6.86;77.68
20368;BME280;10343;52.402;9.796;2023-02-10T04:28:48;102825.91;;;6.93;78.67
20368;BME280;10343;52.402;9.796;2023-02-10T04:31:16;102825.72;;;6.87;78.40
20368;BME280;10343;52.402;9.796;2023-02-10T04:33:44;102828.22;;;6.81;79.02
20368;BME280;10343;52.402;9.796;2023-02-10T04:36:12;102822.53;;;6.66;80.59
20368;BME280;10343;52.402;9.796;2023-02-10T04:38:40;102829.25;;;6.86;79.56
20368;BME280;10343;52.402;9.796;2023-02-10T04:41:07;102837.97;;;6.84;79.55
20368;BME280;10343;52.402;9.796;2023-02-10T04:43:35;102840.75;;;6.90;79.00
20368;BME280;10343;52.402;9.796;2023-02-10T04:46:04;102838.13;;;6.91;79.08
20368;BME280;10343;52.402;9.796;2023-02-10T04:48:32;102830.41;;;6.97;78.99
20368;BME280;10343;52.402;9.796;2023-02-10T04:51:05;102827.00;;;7.02;78.58
20368;BME280;10343;52.402;9.796;2023-02-10T04:53:34;102831.00;;;6.87;79.51
20368;BME280;10343;52.402;9.796;2023-02-10T04:56:02;102828.91;;;6.74;79.43
20368;BME280;10343;52.402;9.796;2023-02-10T04:58:30;102822.00;;;6.79;80.26
20368;BME280;10343;52.402;9.796;2023-02-10T05:00:58;102827.38;;;6.82;79.66
20368;BME280;10343;52.402;9.796;2023-02-10T05:03:27;102833.41;;;6.78;79.91
20368;BME280;10343;52.402;9.796;2023-02-10T05:05:56;102830.03;;;6.50;81.34
20368;BME280;10343;52.402;9.796;2023-02-10T05:08:23;102836.06;;;6.46;81.77
20368;BME280;10343;52.402;9.796;2023-02-10T05:10:52;102839.31;;;7.01;77.84
20368;BME280;10343;52.402;9.796;2023-02-10T05:13:20;102844.03;;;6.81;77.98
20368;BME280;10343;52.402;9.796;2023-02-10T05:15:48;102844.38;;;6.93;77.51
20368;BME280;10343;52.402;9.796;2023-02-10T05:18:16;102843.16;;;6.80;77.68
20368;BME280;10343;52.402;9.796;2023-02-10T05:20:46;102846.25;;;6.99;76.75
20368;BME280;10343;52.402;9.796;2023-02-10T05:23:14;102848.66;;;6.90;76.94
20368;BME280;10343;52.402;9.796;2023-02-10T05:25:42;102846.34;;;6.69;77.84
20368;BME280;10343;52.402;9.796;2023-02-10T05:28:10;102847.72;;;6.54;79.18
20368;BME280;10343;52.402;9.796;2023-02-10T05:30:38;102846.06;;;6.59;78.94
20368;BME280;10343;52.402;9.796;2023-02-10T05:33:06;102848.84;;;6.64;78.15
20368;BME280;10343;52.402;9.796;2023-02-10T05:35:34;102847.53;;;6.48;79.19
20368;BME280;10343;52.402;9.796;2023-02-10T05:38:03;102851.75;;;6.75;78.36
20368;BME280;10343;52.402;9.796;2023-02-10T05:40:31;102850.50;;;6.60;79.53
20368;BME280;10343;52.402;9.796;2023-02-10T05:42:59;102856.13;;;6.73;78.52
20368;BME280;10343;52.402;9.796;2023-02-10T05:45:27;102856.88;;;6.69;78.60
20368;BME280;10343;52.402;9.796;2023-02-10T05:47:55;102852.41;;;6.66;78.75
20368;BME280;10343;52.402;9.796;2023-02-10T05:50:23;102857.31;;;6.52;79.43
20368;BME280;10343;52.402;9.796;2023-02-10T05:52:51;102856.63;;;6.59;79.21
20368;BME280;10343;52.402;9.796;2023-02-10T05:55:20;102859.13;;;6.55;80.13
20368;BME280;10343;52.402;9.796;2023-02-10T05:57:50;102857.75;;;6.69;79.09
20368;BME280;10343;52.402;9.796;2023-02-10T06:00:19;102863.69;;;6.60;79.43
20368;BME280;10343;52.402;9.796;2023-02-10T06:02:47;102867.53;;;6.41;80.74
20368;BME280;10343;52.402;9.796;2023-02-10T06:05:15;102867.69;;;6.46;80.97
20368;BME280;10343;52.402;9.796;2023-02-10T06:07:43;102865.53;;;6.33;81.94
20368;BME280;10343;52.402;9.796;2023-02-10T06:10:10;102865.22;;;6.22;83.93
20368;BME280;10343;52.402;9.796;2023-02-10T06:12:40;102873.94;;;6.21;84.30
20368;BME280;10343;52.402;9.796;2023-02-10T06:15:08;102862.72;;;5.98;85.57
20368;BME280;10343;52.402;9.796;2023-02-10T06:17:36;102881.38;;;6.05;86.35
20368;BME280;10343;52.402;9.796;2023-02-10T06:20:05;102871.91;;;5.83;88.29
20368;BME280;10343;52.402;9.796;2023-02-10T06:22:33;102873.97;;;5.93;88.76
20368;BME280;10343;52.402;9.796;2023-02-10T06:25:01;102875.94;;;5.72;90.55
20368;BME280;10343;52.402;9.796;2023-02-10T06:27:29;102878.03;;;5.84;89.44
20368;BME280;10343;52.402;9.796;2023-02-10T06:29:58;102884.50;;;5.93;89.30
20368;BME280;10343;52.402;9.796;2023-02-10T06:32:26;102879.75;;;5.82;91.32
20368;BME280;10343;52.402;9.796;2023-02-10T06:34:54;102884.63;;;5.97;89.31
20368;BME280;10343;52.402;9.796;2023-02-10T06:37:22;102889.75;;;5.93;89.54
20368;BME280;10343;52.402;9.796;2023-02-10T06:39:50;102906.03;;;5.80;89.79
20368;BME280;10343;52.402;9.796;2023-02-10T06:42:18;102904.97;;;5.75;90.93
20368;BME280;10343;52.402;9.796;2023-02-10T06:44:47;102906.88;;;5.79;91.31
20368;BME280;10343;52.402;9.796;2023-02-10T06:47:16;102918.41;;;5.83;91.59
20368;BME280;10343;52.402;9.796;2023-02-10T06:49:44;102916.13;;;5.66;92.68
20368;BME280;10343;52.402;9.796;2023-02-10T06:52:12;102914.72;;;5.77;92.60
20368;BME280;10343;52.402;9.796;2023-02-10T06:54:42;102924.56;;;5.83;91.90
20368;BME280;10343;52.402;9.796;2023-02-10T06:57:11;102917.94;;;5.69;91.85
20368;BME280;10343;52.402;9.796;2023-02-10T06:59:39;102918.09;;;5.73;92.79
20368;BME280;10343;52.402;9.796;2023-02-10T07:02:08;102926.63;;;5.93;90.96
20368;BME280;10343;52.402;9.796;2023-02-10T07:04:38;102916.50;;;5.51;93.60
20368;BME280;10343;52.402;9.796;2023-02-10T07:07:06;102910.34;;;5.78;92.47
20368;BME280;10343;52.402;9.796;2023-02-10T07:09:34;102915.97;;;5.89;92.74
20368;BME280;10343;52.402;9.796;2023-02-10T07:12:02;102920.19;;;6.11;90.58
20368;BME280;10343;52.402;9.796;2023-02-10T07:14:30;102919.34;;;6.12;89.65
20368;BME280;10343;52.402;9.796;2023-02-10T07:16:58;102913.41;;;6.19;89.15
20368;BME280;10343;52.402;9.796;2023-02-10T07:19:26;102918.06;;;6.28;88.59
20368;BME280;10343;52.402;9.796;2023-02-10T07:21:56;102916.47;;;6.33;88.17
20368;BME280;10343;52.402;9.796;2023-02-10T07:24:24;102916.34;;;6.28;88.16
20368;BME280;10343;52.402;9.796;2023-02-10T07:26:52;102921.03;;;6.39;87.22
20368;BME280;10343;52.402;9.796;2023-02-10T07:29:20;102914.69;;;6.32;88.34
20368;BME280;10343;52.402;9.796;2023-02-10T07:31:48;102911.53;;;6.15;89.96
20368;BME280;10343;52.402;9.796;2023-02-10T07:34:16;102919.19;;;6.36;89.08
20368;BME280;10343;52.402;9.796;2023-02-10T07:36:46;102915.59;;;6.33;88.93
20368;BME280;10343;52.402;9.796;2023-02-10T07:39:18;102914.22;;;6.17;89.85
20368;BME280;10343;52.402;9.796;2023-02-10T07:41:46;102925.53;;;6.14;90.49
20368;BME280;10343;52.402;9.796;2023-02-10T07:44:14;102919.06;;;6.32;89.49
20368;BME280;10343;52.402;9.796;2023-02-10T07:46:42;102910.81;;;6.21;90.67
20368;BME280;10343;52.402;9.796;2023-02-10T07:49:11;102921.22;;;6.45;89.51
20368;BME280;10343;52.402;9.796;2023-02-10T07:51:38;102923.03;;;6.46;89.00
20368;BME280;10343;52.402;9.796;2023-02-10T07:54:09;102931.78;;;6.45;89.65
20368;BME280;10343;52.402;9.796;2023-02-10T07:56:38;102932.66;;;6.45;89.10
20368;BME280;10343;52.402;9.796;2023-02-10T07:59:06;102939.53;;;6.71;87.40
20368;BME280;10343;52.402;9.796;2023-02-10T08:01:34;102939.66;;;6.74;87.23
20368;BME280;10343;52.402;9.796;2023-02-10T08:04:04;102937.50;;;6.60;87.66
20368;BME280;10343;52.402;9.796;2023-02-10T08:06:32;102940.13;;;6.60;89.21
20368;BME280;10343;52.402;9.796;2023-02-10T08:08:59;102940.84;;;6.85;86.82
20368;BME280;10343;52.402;9.796;2023-02-10T08:11:27;102938.59;;;6.99;86.10
20368;BME280;10343;52.402;9.796;2023-02-10T08:14:00;102940.78;;;6.84;87.26
20368;BME280;10343;52.402;9.796;2023-02-10T08:16:28;102934.19;;;6.68;88.30
20368;BME280;10343;52.402;9.796;2023-02-10T08:18:56;102944.91;;;6.74;88.13
20368;BME280;10343;52.402;9.796;2023-02-10T08:21:25;102938.16;;;6.53;89.42
20368;BME280;10343;52.402;9.796;2023-02-10T08:23:53;102945.28;;;6.56;90.13
20368;BME280;10343;52.402;9.796;2023-02-10T08:26:23;102943.91;;;6.70;89.96
20368;BME280;10343;52.402;9.796;2023-02-10T08:28:51;102949.22;;;6.72;88.76
20368;BME280;10343;52.402;9.796;2023-02-10T08:31:22;102948.66;;;6.82;88.47
20368;BME280;10343;52.402;9.796;2023-02-10T08:33:50;102947.94;;;6.88;87.12
20368;BME280;10343;52.402;9.796;2023-02-10T08:36:20;102949.09;;;6.97;87.03
20368;BME280;10343;52.402;9.796;2023-02-10T08:38:49;102959.38;;;6.88;89.03
20368;BME280;10343;52.402;9.796;2023-02-10T08:41:17;102953.94;;;6.82;88.39
20368;BME280;10343;52.402;9.796;2023-02-10T08:43:48;102955.63;;;6.80;88.50
20368;BME280;10343;52.402;9.796;2023-02-10T08:46:16;102959.22;;;6.82;88.68
20368;BME280;10343;52.402;9.796;2023-02-10T08:48:45;102965.19;;;7.07;87.21
20368;BME280;10343;52.402;9.796;2023-02-10T08:51:15;102967.13;;;7.14;86.85
20368;BME280;10343;52.402;9.796;2023-02-10T08:53:43;102974.28;;;7.18;86.81
20368;BME280;10343;52.402;9.796;2023-02-10T08:56:14;102976.56;;;7.38;86.00
20368;BME280;10343;52.402;9.796;2023-02-10T08:58:43;102978.69;;;7.51;83.85
20368;BME280;10343;52.402;9.796;2023-02-10T09:01:14;102982.28;;;7.55;83.37
20368;BME280;10343;52.402;9.796;2023-02-10T09:03:42;102976.81;;;7.47;83.93
20368;BME280;10343;52.402;9.796;2023-02-10T09:06:17;102977.78;;;7.84;81.91
20368;BME280;10343;52.402;9.796;2023-02-10T09:08:46;102993.56;;;7.81;81.71
20368;BME280;10343;52.402;9.796;2023-02-10T09:11:15;102985.13;;;7.97;79.95
20368;BME280;10343;52.402;9.796;2023-02-10T09:13:42;102974.19;;;7.82;81.78
20368;BME280;10343;52.402;9.796;2023-02-10T09:16:10;102980.81;;;7.64;81.71
20368;BME280;10343;52.402;9.796;2023-02-10T09:18:38;102982.50;;;7.62;83.12
20368;BME280;10343;52.402;9.796;2023-02-10T09:21:06;102973.53;;;7.91;81.03
20368;BME280;10343;52.402;9.796;2023-02-10T09:23:36;102987.22;;;7.74;82.54
20368;BME280;10343;52.402;9.796;2023-02-10T09:26:04;102988.72;;;7.99;80.44
20368;BME280;10343;52.402;9.796;2023-02-10T09:28:32;102990.34;;;7.59;81.71
20368;BME280;10343;52.402;9.796;2023-02-10T09:31:00;102986.41;;;7.77;82.10
20368;BME280;10343;52.402;9.796;2023-02-10T09:33:28;102982.19;;;7.50;82.50
20368;BME280;10343;52.402;9.796;2023-02-10T09:35:55;102976.09;;;7.19;84.05
20368;BME280;10343;52.402;9.796;2023-02-10T09:38:23;102982.44;;;7.59;83.03
20368;BME280;10343;52.402;9.796;2023-02-10T09:41:05;102994.38;;;7.78;81.46
20368;BME280;10343;52.402;9.796;2023-02-10T09:43:55;102996.97;;;8.13;79.36
20368;BME280;10343;52.402;9.796;2023-02-10T09:46:31;103003.66;;;8.36;78.32
20368;BME280;10343;52.402;9.796;2023-02-10T09:49:13;103011.41;;;7.91;78.00
20368;BME280;10343;52.402;9.796;2023-02-10T09:51:50;103007.72;;;8.21;77.94
20368;BME280;10343;52.402;9.796;2023-02-10T09:54:19;103011.94;;;8.13;78.32
20368;BME280;10343;52.402;9.796;2023-02-10T09:56:49;103006.66;;;8.13;77.38
20368;BME280;10343;52.402;9.796;2023-02-10T09:59:19;103005.97;;;7.85;78.66
20368;BME280;10343;52.402;9.796;2023-02-10T10:01:54;103005.84;;;8.15;77.19
20368;BME280;10343;52.402;9.796;2023-02-10T10:04:27;102996.63;;;8.36;76.51
20368;BME280;10343;52.402;9.796;2023-02-10T10:07:04;102998.47;;;8.02;76.89
20368;BME280;10343;52.402;9.796;2023-02-10T10:09:42;102997.72;;;8.08;76.87
20368;BME280;10343;52.402;9.796;2023-02-10T10:12:16;103008.16;;;8.40;75.69
20368;BME280;10343;52.402;9.796;2023-02-10T10:14:45;102997.25;;;8.62;74.39
20368;BME280;10343;52.402;9.796;2023-02-10T10:17:46;103005.25;;;8.65;73.78
20368;BME280;10343;52.402;9.796;2023-02-10T10:20:31;103003.19;;;8.52;75.04
20368;BME280;10343;52.402;9.796;2023-02-10T10:23:15;102999.94;;;8.65;74.68
20368;BME280;10343;52.402;9.796;2023-02-10T10:26:04;103003.94;;;8.46;75.19
20368;BME280;10343;52.402;9.796;2023-02-10T10:28:47;103013.38;;;8.37;75.97
20368;BME280;10343;52.402;9.796;2023-02-10T10:31:19;103008.09;;;8.75;72.90
20368;BME280;10343;52.402;9.796;2023-02-10T10:33:52;103006.97;;;8.65;73.27
20368;BME280;10343;52.402;9.796;2023-02-10T10:36:23;103004.72;;;8.82;72.86
20368;BME280;10343;52.402;9.796;2023-02-10T10:38:59;103001.81;;;8.70;72.81
20368;BME280;10343;52.402;9.796;2023-02-10T10:41:30;103003.19;;;8.93;70.78
20368;BME280;10343;52.402;9.796;2023-02-10T10:44:01;103011.25;;;8.99;71.19
20368;BME280;10343;52.402;9.796;2023-02-10T10:46:34;103004.66;;;8.79;71.40
20368;BME280;10343;52.402;9.796;2023-02-10T10:49:05;103003.50;;;9.09;70.85
20368;BME280;10343;52.402;9.796;2023-02-10T10:51:33;102993.44;;;8.92;69.72
20368;BME280;10343;52.402;9.796;2023-02-10T10:54:04;102991.25;;;8.71;70.79
20368;BME280;10343;52.402;9.796;2023-02-10T10:56:37;102988.41;;;9.05;69.53
20368;BME280;10343;52.402;9.796;2023-02-10T10:59:13;102986.47;;;8.96;69.54
20368;BME280;10343;52.402;9.796;2023-02-10T11:01:44;102978.66;;;8.59;70.41
20368;BME280;10343;52.402;9.796;2023-02-10T11:04:15;102976.16;;;9.08;69.81
20368;BME280;10343;52.402;9.796;2023-02-10T11:06:46;102978.22;;;9.25;68.21
20368;BME280;10343;52.402;9.796;2023-02-10T11:09:22;102969.00;;;9.04;68.31
20368;BME280;10343;52.402;9.796;2023-02-10T11:11:53;102973.56;;;9.13;68.42
20368;BME280;10343;52.402;9.796;2023-02-10T11:14:24;102977.31;;;9.24;67.79
20368;BME280;10343;52.402;9.796;2023-02-10T11:16:57;102970.78;;;9.04;68.05
20368;BME280;10343;52.402;9.796;2023-02-10T11:19:29;102975.03;;;8.97;67.93
20368;BME280;10343;52.402;9.796;2023-02-10T11:22:16;102975.25;;;9.08;67.80
20368;BME280;10343;52.402;9.796;2023-02-10T11:24:49;102971.47;;;8.96;67.56
20368;BME280;10343;52.402;9.796;2023-02-10T11:27:18;102974.34;;;9.07;67.46
20368;BME280;10343;52.402;9.796;2023-02-10T11:29:50;102966.34;;;9.03;68.29
20368;BME280;10343;52.402;9.796;2023-02-10T11:32:21;102968.41;;;9.19;67.90
20368;BME280;10343;52.402;9.796;2023-02-10T11:34:51;102967.28;;;8.63;69.38
20368;BME280;10343;52.402;9.796;2023-02-10T11:37:23;102966.75;;;8.81;68.96
20368;BME280;10343;52.402;9.796;2023-02-10T11:39:54;102968.50;;;9.25;66.99
20368;BME280;10343;52.402;9.796;2023-02-10T11:42:27;102967.38;;;9.11;67.69
20368;BME280;10343;52.402;9.796;2023-02-10T11:44:58;102965.88;;;8.81;68.83
20368;BME280;10343;52.402;9.796;2023-02-10T11:47:28;102970.53;;;8.91;69.02
20368;BME280;10343;52.402;9.796;2023-02-10T11:49:57;102970.56;;;8.94;68.20
20368;BME280;10343;52.402;9.796;2023-02-10T11:52:27;102960.91;;;8.96;67.70
20368;BME280;10343;52.402;9.796;2023-02-10T11:54:56;102961.94;;;8.60;69.14
20368;BME280;10343;52.402;9.796;2023-02-10T11:57:32;102960.13;;;9.02;68.43
20368;BME280;10343;52.402;9.796;2023-02-10T12:00:26;102955.69;;;9.47;65.96
20368;BME280;10343;52.402;9.796;2023-02-10T12:03:33;102955.50;;;9.38;65.80
20368;BME280;10343;52.402;9.796;2023-02-10T12:06:05;102952.78;;;9.33;66.26
20368;BME280;10343;52.402;9.796;2023-02-10T12:08:41;102958.78;;;9.24;65.57
20368;BME280;10343;52.402;9.796;2023-02-10T12:11:21;102959.28;;;9.05;66.24
20368;BME280;10343;52.402;9.796;2023-02-10T12:14:01;102960.50;;;9.21;66.72
20368;BME280;10343;52.402;9.796;2023-02-10T12:16:39;102960.72;;;9.33;65.22
20368;BME280;10343;52.402;9.796;2023-02-10T12:19:18;102947.47;;;9.31;64.91
20368;BME280;10343;52.402;9.796;2023-02-10T12:22:04;102952.31;;;9.07;65.97
20368;BME280;10343;52.402;9.796;2023-02-10T12:24:48;102948.72;;;9.05;66.54
20368;BME280;10343;52.402;9.796;2023-02-10T12:27:22;102944.25;;;9.02;66.46
20368;BME280;10343;52.402;9.796;2023-02-10T12:30:02;102945.69;;;9.30;65.81
20368;BME280;10343;52.402;9.796;2023-02-10T12:32:45;102948.63;;;9.47;64.38
20368;BME280;10343;52.402;9.796;2023-02-10T12:35:25;102944.22;;;9.48;64.61
20368;BME280;10343;52.402;9.796;2023-02-10T12:38:04;102939.34;;;9.73;63.31
20368;BME280;10343;52.402;9.796;2023-02-10T12:40:44;102934.75;;;9.62;63.32
20368;BME280;10343;52.402;9.796;2023-02-10T12:43:27;102941.03;;;9.69;63.42
20368;BME280;10343;52.402;9.796;2023-02-10T12:46:05;102931.84;;;9.47;63.37
20368;BME280;10343;52.402;9.796;2023-02-10T12:48:43;102933.41;;;9.88;62.59
20368;BME280;10343;52.402;9.796;2023-02-10T12:51:48;102927.31;;;9.93;62.29
20368;BME280;10343;52.402;9.796;2023-02-10T12:54:22;102911.53;;;10.02;61.78
20368;BME280;10343;52.402;9.796;2023-02-10T12:57:12;102917.97;;;10.18;60.58
20368;BME280;10343;52.402;9.796;2023-02-10T12:59:48;102913.66;;;10.28;60.63
20368;BME280;10343;52.402;9.796;2023-02-10T13:02:20;102906.28;;;10.06;61.26
20368;BME280;10343;52.402;9.796;2023-02-10T13:04:54;102907.19;;;10.08;60.73
20368;BME280;10343;52.402;9.796;2023-02-10T13:07:30;102907.16;;;9.48;62.95
20368;BME280;10343;52.402;9.796;2023-02-10T13:10:09;102895.19;;;9.72;62.11
20368;BME280;10343;52.402;9.796;2023-02-10T13:12:46;102898.59;;;10.24;60.41
20368;BME280;10343;52.402;9.796;2023-02-10T13:15:16;102893.72;;;9.92;60.91
20368;BME280;10343;52.402;9.796;2023-02-10T13:17:47;102889.22;;;9.86;61.40
20368;BME280;10343;52.402;9.796;2023-02-10T13:20:35;102894.31;;;9.73;62.06
20368;BME280;10343;52.402;9.796;2023-02-10T13:23:16;102883.44;;;9.56;62.86
20368;BME280;10343;52.402;9.796;2023-02-10T13:26:01;102880.47;;;9.35;63.16